Time;durP1;ratioP1;P1;durP2;ratioP2;P2;SDS_P1;SDS_P2;PMS_P1;PMS_P2;Temp;Humidity;BMP_temperature;BMP_pressure;BME280_temperature;BME280_humidity;BME280_pressure;Samples;Min_cycle;Max_cycle;Signal;HPM_P1;HPM_P2
2022/09/04 00:00:02;;;;;;;0.00;0.00;;;19.60;90.40;;;;;;4991938;28;20054;-70
2022/09/04 00:02:51;;;;;;;0.00;0.00;;;19.60;90.60;;;;;;4992741;28;20060;-70
2022/09/04 00:05:41;;;;;;;0.10;0.10;;;19.60;90.40;;;;;;5004590;28;20386;-70
2022/09/04 00:08:28;;;;;;;0.15;0.15;;;19.40;90.60;;;;;;5012744;28;20050;-69
2022/09/04 00:11:22;;;;;;;0.10;0.10;;;19.40;91.10;;;;;;4995054;28;20207;-69
2022/09/04 00:13:56;;;;;;;0.00;0.00;;;19.50;90.80;;;;;;4993066;28;20422;-69
2022/09/04 00:16:30;;;;;;;0.00;0.00;;;19.50;90.60;;;;;;4992852;28;20038;-69
2022/09/04 00:19:23;;;;;;;0.28;0.28;;;19.40;90.90;;;;;;4993597;28;20053;-69
2022/09/04 00:21:57;;;;;;;0.10;0.10;;;19.30;90.70;;;;;;4992696;28;20402;-69
2022/09/04 00:24:38;;;;;;;0.50;0.50;;;19.30;91.60;;;;;;4991407;28;20144;-70
2022/09/04 00:27:09;;;;;;;0.05;0.05;;;19.40;90.70;;;;;;4993155;28;20046;-70
2022/09/04 00:29:56;;;;;;;0.00;0.00;;;19.30;91.10;;;;;;4994651;28;20078;-70
2022/09/04 00:32:22;;;;;;;13.73;0.52;;;19.20;90.70;;;;;;4992051;28;20108;-69
2022/09/04 00:35:12;;;;;;;0.00;0.00;;;19.30;90.80;;;;;;5001301;28;20501;-70
2022/09/04 00:37:44;;;;;;;0.00;0.00;;;19.20;90.80;;;;;;5010714;28;20100;-70
2022/09/04 00:40:42;;;;;;;0.25;0.25;;;19.10;91.10;;;;;;5000996;28;20751;-70
2022/09/04 00:43:19;;;;;;;0.10;0.10;;;19.20;90.80;;;;;;4991944;28;20077;-70
2022/09/04 00:46:00;;;;;;;0.03;0.03;;;19.10;90.70;;;;;;4992277;28;20093;-70
2022/09/04 00:48:54;;;;;;;0.00;0.00;;;19.20;90.70;;;;;;4992897;28;20055;-70
2022/09/04 00:51:31;;;;;;;0.00;0.00;;;19.00;91.10;;;;;;5005465;28;20038;-70
2022/09/04 00:54:17;;;;;;;0.22;0.22;;;19.00;90.80;;;;;;4991342;28;20394;-70
2022/09/04 00:57:01;;;;;;;0.00;0.00;;;18.90;91.00;;;;;;4989777;28;20046;-70
2022/09/04 00:59:51;;;;;;;0.00;0.00;;;18.80;91.00;;;;;;4992464;28;20115;-70
2022/09/04 01:02:28;;;;;;;0.30;0.20;;;18.90;91.10;;;;;;4992994;28;20062;-70
2022/09/04 01:05:12;;;;;;;0.15;0.15;;;19.00;90.90;;;;;;5004585;28;20068;-70
2022/09/04 01:07:57;;;;;;;0.10;0.10;;;18.80;91.10;;;;;;5006484;28;20034;-70
2022/09/04 01:10:35;;;;;;;0.00;0.00;;;18.80;91.10;;;;;;4990696;28;20046;-70
2022/09/04 01:13:46;;;;;;;0.00;0.00;;;18.80;91.10;;;;;;4990370;28;20050;-70
2022/09/04 01:16:25;;;;;;;0.80;0.55;;;18.90;91.10;;;;;;4988890;28;20571;-70
2022/09/04 01:19:16;;;;;;;1.08;0.20;;;18.80;91.00;;;;;;4990196;28;20049;-70
2022/09/04 01:22:03;;;;;;;0.13;0.10;;;18.70;91.20;;;;;;4990401;28;20054;-70
2022/09/04 01:24:52;;;;;;;0.10;0.10;;;18.70;91.50;;;;;;4992431;28;20049;-70
2022/09/04 01:27:26;;;;;;;0.00;0.00;;;18.60;91.30;;;;;;4995210;28;20421;-70
2022/09/04 01:30:14;;;;;;;0.20;0.20;;;18.60;91.30;;;;;;5006700;28;20094;-70
2022/09/04 01:33:21;;;;;;;0.10;0.10;;;18.50;91.40;;;;;;4990128;28;20454;-70
2022/09/04 01:36:15;;;;;;;0.15;0.15;;;18.50;91.50;;;;;;5005423;28;20046;-70
2022/09/04 01:38:54;;;;;;;0.00;0.00;;;18.40;91.60;;;;;;4993100;28;20245;-70
2022/09/04 01:41:32;;;;;;;0.25;0.25;;;18.50;91.50;;;;;;4987854;28;20136;-70
2022/09/04 01:43:58;;;;;;;0.90;0.22;;;18.40;91.60;;;;;;4992754;28;20438;-70
2022/09/04 01:46:36;;;;;;;0.00;0.00;;;18.40;91.70;;;;;;4989749;28;20112;-70
2022/09/04 01:49:23;;;;;;;0.00;0.00;;;18.40;91.90;;;;;;5008189;28;20487;-70
2022/09/04 01:52:07;;;;;;;0.45;0.38;;;18.30;91.70;;;;;;5006060;28;20470;-70
2022/09/04 01:55:10;;;;;;;0.00;0.00;;;18.30;91.60;;;;;;4990157;28;20041;-70
2022/09/04 01:57:54;;;;;;;0.20;0.13;;;18.40;91.60;;;;;;5003170;28;20124;-70
2022/09/04 02:00:22;;;;;;;0.15;0.15;;;18.40;91.70;;;;;;5010530;28;20054;-70
2022/09/04 02:03:21;;;;;;;0.10;0.10;;;18.30;91.70;;;;;;5005216;28;20053;-70
2022/09/04 02:06:01;;;;;;;0.00;0.00;;;18.30;91.80;;;;;;5006695;28;20054;-70
2022/09/04 02:08:46;;;;;;;0.00;0.00;;;18.20;91.90;;;;;;4991204;28;20046;-70
2022/09/04 02:11:25;;;;;;;0.00;0.00;;;18.20;91.90;;;;;;4990505;28;20078;-70
2022/09/04 02:14:14;;;;;;;0.10;0.10;;;18.20;91.90;;;;;;5005696;28;20441;-69
2022/09/04 02:16:55;;;;;;;0.65;0.45;;;18.30;91.90;;;;;;4994319;28;20053;-70
2022/09/04 02:19:48;;;;;;;0.10;0.10;;;18.30;91.90;;;;;;4996357;28;20084;-70
2022/09/04 02:22:23;;;;;;;0.00;0.00;;;18.20;91.90;;;;;;4998199;28;20042;-70
2022/09/04 02:25:08;;;;;;;2.47;0.47;;;18.10;91.80;;;;;;4988986;28;20069;-70
2022/09/04 02:27:59;;;;;;;0.10;0.10;;;18.10;92.00;;;;;;4996241;28;20065;-71
2022/09/04 02:30:28;;;;;;;0.55;0.55;;;18.10;92.00;;;;;;4996724;28;20057;-70
2022/09/04 02:33:06;;;;;;;0.43;0.43;;;18.00;92.20;;;;;;5007989;28;20077;-70
2022/09/04 02:35:47;;;;;;;2.00;0.15;;;18.00;92.20;;;;;;5009666;28;20069;-69
2022/09/04 02:38:31;;;;;;;0.00;0.00;;;17.90;92.20;;;;;;4996004;28;20516;-70
2022/09/04 02:41:06;;;;;;;0.00;0.00;;;17.90;92.10;;;;;;5003845;28;20180;-70
2022/09/04 02:44:17;;;;;;;0.10;0.10;;;17.90;92.60;;;;;;5008500;28;20072;-70
2022/09/04 02:47:00;;;;;;;0.20;0.20;;;17.90;92.40;;;;;;4998919;28;20066;-70
2022/09/04 02:49:54;;;;;;;0.00;0.00;;;17.90;92.40;;;;;;5008164;28;20056;-70
2022/09/04 02:52:47;;;;;;;0.00;0.00;;;17.90;92.40;;;;;;5007135;28;20045;-70
2022/09/04 02:55:44;;;;;;;0.10;0.10;;;17.90;92.60;;;;;;5010204;28;20134;-70
2022/09/04 02:58:26;;;;;;;0.03;0.03;;;17.80;92.40;;;;;;5004034;28;20049;-70
2022/09/04 03:01:08;;;;;;;0.10;0.10;;;17.80;92.50;;;;;;4993497;28;20050;-70
2022/09/04 03:04:04;;;;;;;0.00;0.00;;;17.80;92.40;;;;;;5008351;28;20128;-71
2022/09/04 03:06:50;;;;;;;0.03;0.03;;;17.70;92.70;;;;;;4993207;28;20051;-70
2022/09/04 03:09:22;;;;;;;0.00;0.00;;;17.70;92.90;;;;;;4990353;28;20053;-70
2022/09/04 03:11:58;;;;;;;0.25;0.25;;;17.70;93.00;;;;;;4989194;28;20514;-70
2022/09/04 03:14:33;;;;;;;0.03;0.03;;;17.70;92.80;;;;;;4990407;28;20086;-70
2022/09/04 03:17:15;;;;;;;0.10;0.10;;;17.70;92.80;;;;;;5000647;28;20088;-70
2022/09/04 03:20:01;;;;;;;0.00;0.00;;;17.60;92.90;;;;;;5008051;28;20053;-70
2022/09/04 03:22:35;;;;;;;0.17;0.17;;;17.60;93.00;;;;;;5009834;28;20054;-70
2022/09/04 03:25:29;;;;;;;0.00;0.00;;;17.50;93.00;;;;;;5005845;28;20060;-70
2022/09/04 03:27:54;;;;;;;;;;;17.60;93.10;;;;;;4995803;28;20050;-70
2022/09/04 03:30:20;;;;;;;0.10;0.10;;;17.50;93.10;;;;;;4993679;28;19932;-70
2022/09/04 03:33:03;;;;;;;0.00;0.00;;;17.50;93.10;;;;;;4989404;28;20189;-71
2022/09/04 03:35:52;;;;;;;0.52;0.52;;;17.50;93.10;;;;;;4990609;28;20105;-70
2022/09/04 03:38:57;;;;;;;0.47;0.25;;;17.50;93.10;;;;;;5007888;28;20066;-70
2022/09/04 03:41:38;;;;;;;0.10;0.10;;;17.40;93.30;;;;;;4993992;28;20046;-71
2022/09/04 03:44:21;;;;;;;0.30;0.30;;;17.30;93.30;;;;;;4994248;28;20076;-71
2022/09/04 03:47:14;;;;;;;0.08;0.08;;;17.30;93.40;;;;;;4990927;28;20177;-70
2022/09/04 03:50:08;;;;;;;2.63;1.08;;;17.30;93.30;;;;;;5000226;28;20085;-70
2022/09/04 03:52:49;;;;;;;0.00;0.00;;;17.30;93.40;;;;;;5009445;28;20062;-71
2022/09/04 03:55:27;;;;;;;5.05;0.32;;;17.20;93.40;;;;;;5008928;28;20045;-71
2022/09/04 03:58:02;;;;;;;0.00;0.00;;;17.20;93.50;;;;;;5004783;28;20092;-72
2022/09/04 04:00:55;;;;;;;0.10;0.10;;;17.20;93.70;;;;;;5006349;28;20119;-71
2022/09/04 04:03:35;;;;;;;;;;;17.20;93.70;;;;;;5011688;28;20120;-70
2022/09/04 04:06:43;;;;;;;0.10;0.10;;;17.20;93.70;;;;;;5004853;28;19921;-71
2022/09/04 04:09:38;;;;;;;0.00;0.00;;;17.20;93.70;;;;;;4991280;28;20130;-70
2022/09/04 04:12:29;;;;;;;0.00;0.00;;;17.10;93.80;;;;;;5006544;28;20054;-70
2022/09/04 04:15:11;;;;;;;0.10;0.10;;;17.10;94.00;;;;;;5010474;28;20089;-70
2022/09/04 04:18:12;;;;;;;0.00;0.00;;;17.00;94.10;;;;;;4992979;28;20046;-70
2022/09/04 04:20:55;;;;;;;0.10;0.10;;;17.10;93.90;;;;;;4997200;28;20045;-70
2022/09/04 04:23:46;;;;;;;0.20;0.20;;;17.10;94.00;;;;;;5002005;28;20098;-70
2022/09/04 04:26:28;;;;;;;0.10;0.10;;;17.00;94.30;;;;;;4998821;28;20096;-70
2022/09/04 04:29:12;;;;;;;0.52;0.52;;;17.00;94.30;;;;;;5009903;28;20058;-70
2022/09/04 04:32:09;;;;;;;0.10;0.10;;;16.90;94.10;;;;;;4997130;28;20057;-71
2022/09/04 04:35:07;;;;;;;0.00;0.00;;;16.90;94.20;;;;;;5012616;28;20132;-71
2022/09/04 04:37:50;;;;;;;1.25;0.95;;;16.90;94.30;;;;;;5011981;28;20064;-70
2022/09/04 04:40:44;;;;;;;0.00;0.00;;;17.00;94.20;;;;;;4998519;28;20046;-71
2022/09/04 04:43:22;;;;;;;0.00;0.00;;;17.00;94.50;;;;;;4991123;28;20069;-71
2022/09/04 04:45:56;;;;;;;0.10;0.10;;;16.90;94.40;;;;;;4992441;28;20062;-71
2022/09/04 04:48:40;;;;;;;0.32;0.32;;;16.90;94.70;;;;;;4993652;28;20044;-71
2022/09/04 04:51:24;;;;;;;0.10;0.10;;;16.90;94.40;;;;;;5006645;28;20073;-71
2022/09/04 04:53:56;;;;;;;;;;;16.90;94.70;;;;;;5005798;28;20074;-71
2022/09/04 04:56:35;;;;;;;0.30;0.30;;;16.90;94.60;;;;;;5003660;28;19928;-71
2022/09/04 04:59:19;;;;;;;0.00;0.00;;;16.90;94.70;;;;;;5010662;28;20409;-71
2022/09/04 05:02:22;;;;;;;0.03;0.03;;;16.90;94.60;;;;;;5010593;28;20057;-71
2022/09/04 05:05:12;;;;;;;0.10;0.10;;;16.90;94.80;;;;;;5009995;28;20053;-71
2022/09/04 05:07:51;;;;;;;0.15;0.15;;;16.80;95.00;;;;;;5010821;28;20172;-71
2022/09/04 05:10:24;;;;;;;0.50;0.50;;;16.80;94.80;;;;;;5011284;28;20073;-70
2022/09/04 05:13:06;;;;;;;0.10;0.10;;;16.80;95.00;;;;;;5010371;28;20053;-70
2022/09/04 05:15:42;;;;;;;0.10;0.10;;;16.80;95.10;;;;;;4989923;28;20060;-70
2022/09/04 05:18:12;;;;;;;0.40;0.40;;;16.80;95.20;;;;;;4991197;28;20494;-71
2022/09/04 05:20:55;;;;;;;0.30;0.30;;;16.90;95.50;;;;;;4996787;28;20049;-70
2022/09/04 05:23:36;;;;;;;;;;;16.90;95.30;;;;;;4992360;28;20058;-71
2022/09/04 05:26:32;;;;;;;0.13;0.08;;;16.90;95.50;;;;;;4996255;28;20351;-71
2022/09/04 05:29:19;;;;;;;0.10;0.10;;;16.90;95.30;;;;;;4991598;28;20054;-71
2022/09/04 05:32:10;;;;;;;0.13;0.13;;;16.90;95.40;;;;;;4990005;28;20050;-71
2022/09/04 05:34:58;;;;;;;0.17;0.17;;;17.00;95.40;;;;;;5000848;28;20061;-71
2022/09/04 05:37:29;;;;;;;0.08;0.08;;;16.90;95.50;;;;;;4991745;28;20173;-71
2022/09/04 05:40:14;;;;;;;0.10;0.10;;;16.90;95.50;;;;;;4992076;28;20116;-71
2022/09/04 05:42:54;;;;;;;0.15;0.15;;;16.90;95.70;;;;;;4991490;28;20046;-71
2022/09/04 05:45:23;;;;;;;0.40;0.40;;;17.00;95.60;;;;;;4991310;28;20049;-71
2022/09/04 05:48:03;;;;;;;0.17;0.17;;;17.00;95.80;;;;;;4992771;28;20401;-71
2022/09/04 05:50:50;;;;;;;0.00;0.00;;;17.00;95.60;;;;;;5009278;28;20064;-71
2022/09/04 05:53:34;;;;;;;0.10;0.10;;;17.00;95.70;;;;;;5008184;28;20057;-71
2022/09/04 05:56:36;;;;;;;0.10;0.10;;;16.90;95.50;;;;;;4994899;28;20081;-71
2022/09/04 05:59:24;;;;;;;0.10;0.10;;;17.00;95.80;;;;;;4990251;28;20473;-71
2022/09/04 06:02:08;;;;;;;0.10;0.10;;;16.90;95.90;;;;;;4990379;28;20437;-71
2022/09/04 06:05:07;;;;;;;0.00;0.00;;;17.00;95.90;;;;;;4989913;28;20042;-71
2022/09/04 06:08:13;;;;;;;0.17;0.17;;;17.00;96.00;;;;;;4989912;28;20410;-71
2022/09/04 06:11:26;;;;;;;0.10;0.10;;;17.00;96.00;;;;;;4988661;28;20054;-71
2022/09/04 06:14:04;;;;;;;0.10;0.10;;;17.00;96.10;;;;;;4992373;28;20498;-71
2022/09/04 06:16:29;;;;;;;0.10;0.10;;;17.00;96.20;;;;;;4999528;28;20482;-71
2022/09/04 06:19:10;;;;;;;0.10;0.10;;;17.00;96.20;;;;;;5009274;28;20053;-71
2022/09/04 06:22:02;;;;;;;0.00;0.00;;;17.10;96.10;;;;;;5000927;28;20054;-71
2022/09/04 06:24:37;;;;;;;0.00;0.00;;;17.10;96.50;;;;;;4993962;28;20516;-71
2022/09/04 06:27:58;;;;;;;0.20;0.20;;;17.10;96.30;;;;;;5004639;28;20494;-71
2022/09/04 06:30:29;;;;;;;0.43;0.43;;;17.20;96.30;;;;;;4929595;29;20060;-71
2022/09/04 06:33:13;;;;;;;0.00;0.00;;;17.30;96.20;;;;;;4980526;28;20117;-71
2022/09/04 06:36:04;;;;;;;0.10;0.10;;;17.30;96.10;;;;;;5001440;28;20100;-71
2022/09/04 06:39:06;;;;;;;0.10;0.10;;;17.30;96.30;;;;;;4994253;28;20482;-71
2022/09/04 06:41:50;;;;;;;0.08;0.08;;;17.40;96.40;;;;;;5009240;28;20064;-71
2022/09/04 06:44:35;;;;;;;0.08;0.08;;;17.40;96.40;;;;;;4998705;28;20053;-71
2022/09/04 06:47:16;;;;;;;0.20;0.20;;;17.50;96.20;;;;;;4990759;28;20057;-72
2022/09/04 06:49:55;;;;;;;1.40;0.77;;;17.60;96.20;;;;;;4999543;28;20096;-71
2022/09/04 06:52:37;;;;;;;0.00;0.00;;;17.70;96.70;;;;;;5004397;28;20065;-72
2022/09/04 06:55:24;;;;;;;0.10;0.10;;;17.70;96.60;;;;;;4993850;28;20394;-72
2022/09/04 06:58:36;;;;;;;0.30;0.30;;;17.80;96.70;;;;;;5001559;28;20069;-71
2022/09/04 07:01:28;;;;;;;0.10;0.10;;;17.80;96.70;;;;;;4998907;28;20100;-72
2022/09/04 07:04:16;;;;;;;0.10;0.10;;;17.90;97.00;;;;;;5003139;28;20046;-71
2022/09/04 07:06:57;;;;;;;0.08;0.08;;;18.00;97.20;;;;;;5006526;28;20054;-71
2022/09/04 07:09:40;;;;;;;0.32;0.32;;;18.10;96.80;;;;;;4999067;28;20050;-73
2022/09/04 07:12:08;;;;;;;0.10;0.10;;;18.10;96.90;;;;;;4991967;28;20086;-71
2022/09/04 07:14:43;;;;;;;0.90;0.75;;;18.20;96.70;;;;;;4999924;28;20049;-71
2022/09/04 07:17:32;;;;;;;0.00;0.00;;;18.20;97.20;;;;;;4989146;28;20173;-72
2022/09/04 07:20:28;;;;;;;0.10;0.10;;;18.30;96.90;;;;;;5002091;28;20057;-71
2022/09/04 07:23:10;;;;;;;0.10;0.10;;;18.30;96.80;;;;;;5001198;28;20046;-71
2022/09/04 07:25:47;;;;;;;1.75;0.22;;;18.40;96.80;;;;;;5002800;28;20092;-71
2022/09/04 07:28:32;;;;;;;0.05;0.03;;;18.40;96.70;;;;;;4997807;28;20134;-71
2022/09/04 07:31:04;;;;;;;0.20;0.20;;;18.50;97.30;;;;;;5001064;28;20121;-72
2022/09/04 07:34:03;;;;;;;0.20;0.20;;;18.60;96.80;;;;;;4996786;28;20077;-71
2022/09/04 07:36:44;;;;;;;0.10;0.10;;;18.70;96.70;;;;;;5004968;28;20374;-72
2022/09/04 07:39:14;;;;;;;0.20;0.20;;;18.60;96.30;;;;;;5007478;28;20432;-72
2022/09/04 07:42:18;;;;;;;0.03;0.03;;;18.60;96.60;;;;;;5006740;28;20049;-72
2022/09/04 07:44:47;;;;;;;0.10;0.10;;;18.70;96.70;;;;;;4986751;28;20076;-72
2022/09/04 07:47:41;;;;;;;0.00;0.00;;;18.80;96.70;;;;;;4990652;28;20134;-72
2022/09/04 07:50:22;;;;;;;0.00;0.00;;;18.90;97.00;;;;;;4997977;28;20053;-72
2022/09/04 07:53:00;;;;;;;0.00;0.00;;;19.00;96.60;;;;;;4991830;28;20042;-72
2022/09/04 07:55:47;;;;;;;0.10;0.10;;;19.10;96.80;;;;;;4994628;28;20061;-72
2022/09/04 07:58:49;;;;;;;0.15;0.15;;;19.20;96.10;;;;;;5006411;28;20486;-72
2022/09/04 08:01:58;;;;;;;0.10;0.10;;;19.20;96.30;;;;;;4992680;28;20166;-72
2022/09/04 08:04:49;;;;;;;0.00;0.00;;;19.20;96.80;;;;;;5002447;28;20045;-72
2022/09/04 08:08:02;;;;;;;0.10;0.10;;;19.40;96.90;;;;;;5012201;28;20149;-72
2022/09/04 08:10:52;;;;;;;0.00;0.00;;;19.50;96.40;;;;;;4990534;28;20520;-72
2022/09/04 08:13:47;;;;;;;0.10;0.10;;;19.50;96.60;;;;;;4992422;28;20445;-70
2022/09/04 08:16:45;;;;;;;0.00;0.00;;;19.60;96.50;;;;;;5005066;28;20053;-69
2022/09/04 08:19:25;;;;;;;0.05;0.05;;;19.70;96.80;;;;;;5002206;28;20042;-69
2022/09/04 08:21:52;;;;;;;0.43;0.43;;;19.80;96.30;;;;;;4999897;28;20092;-71
2022/09/04 08:24:27;;;;;;;0.20;0.13;;;19.80;96.40;;;;;;5000724;28;20038;-71
2022/09/04 08:27:22;;;;;;;0.00;0.00;;;19.90;96.80;;;;;;4996218;28;20173;-71
2022/09/04 08:29:57;;;;;;;0.30;0.30;;;20.00;96.70;;;;;;5000011;28;20042;-71
2022/09/04 08:32:56;;;;;;;0.10;0.10;;;20.10;96.90;;;;;;5007188;28;20046;-71
2022/09/04 08:35:46;;;;;;;0.52;0.52;;;20.10;96.50;;;;;;4992269;28;20047;-71
2022/09/04 08:38:42;;;;;;;0.20;0.20;;;20.20;96.70;;;;;;4991101;28;20150;-72
2022/09/04 08:41:45;;;;;;;0.32;0.32;;;20.30;96.60;;;;;;5002253;28;20473;-72
2022/09/04 08:44:48;;;;;;;0.00;0.00;;;20.30;96.70;;;;;;5004066;28;20049;-72
2022/09/04 08:47:19;;;;;;;0.05;0.05;;;20.50;96.90;;;;;;5009378;28;20141;-71
2022/09/04 08:50:15;;;;;;;0.00;0.00;;;20.60;97.00;;;;;;5011046;28;20049;-71
2022/09/04 08:52:59;;;;;;;0.10;0.10;;;20.80;96.90;;;;;;5010457;28;20050;-72
2022/09/04 08:55:46;;;;;;;0.13;0.10;;;20.90;96.80;;;;;;5005050;28;20481;-72
2022/09/04 08:58:40;;;;;;;0.00;0.00;;;21.00;96.50;;;;;;5009984;28;20042;-72
2022/09/04 09:01:34;;;;;;;0.00;0.00;;;21.20;96.70;;;;;;5010460;28;20058;-71
2022/09/04 09:04:24;;;;;;;0.10;0.10;;;21.70;96.00;;;;;;4995128;28;20051;-71
2022/09/04 09:07:04;;;;;;;0.00;0.00;;;22.30;96.20;;;;;;5010260;28;20058;-72
2022/09/04 09:10:08;;;;;;;0.85;0.50;;;22.80;95.30;;;;;;5005217;28;20045;-71
2022/09/04 09:12:52;;;;;;;0.10;0.10;;;23.20;95.00;;;;;;5006465;28;20050;-71
2022/09/04 09:15:39;;;;;;;0.10;0.10;;;23.70;94.10;;;;;;4995516;28;20501;-71
2022/09/04 09:18:36;;;;;;;0.17;0.17;;;23.90;94.50;;;;;;5001266;28;20038;-71
2022/09/04 09:21:24;;;;;;;0.00;0.00;;;23.90;93.90;;;;;;4999724;28;20445;-71
2022/09/04 09:24:13;;;;;;;0.45;0.45;;;24.10;94.10;;;;;;4993144;28;20049;-70
2022/09/04 09:27:11;;;;;;;1.48;0.63;;;24.30;94.00;;;;;;5004189;28;20120;-71
2022/09/04 09:30:03;;;;;;;0.00;0.00;;;24.70;93.10;;;;;;5005333;28;20046;-71
2022/09/04 09:33:02;;;;;;;2.95;1.75;;;24.90;93.30;;;;;;4995397;28;20050;-71
2022/09/04 09:35:50;;;;;;;0.00;0.00;;;25.00;93.10;;;;;;4992287;28;20042;-71
2022/09/04 09:38:53;;;;;;;0.20;0.20;;;25.30;92.80;;;;;;5006699;28;20492;-71
2022/09/04 09:41:58;;;;;;;0.00;0.00;;;25.20;92.50;;;;;;5001860;28;20038;-71
2022/09/04 09:44:45;;;;;;;0.10;0.10;;;25.00;92.40;;;;;;5008901;28;20034;-71
2022/09/04 09:47:51;;;;;;;0.00;0.00;;;25.00;92.90;;;;;;4999173;28;20483;-71
2022/09/04 09:50:30;;;;;;;0.28;0.28;;;25.10;93.20;;;;;;4997653;28;20129;-71
2022/09/04 09:53:36;;;;;;;0.00;0.00;;;25.20;92.60;;;;;;4991190;28;20050;-71
2022/09/04 09:56:15;;;;;;;0.00;0.00;;;25.20;92.50;;;;;;4993952;28;20054;-72
2022/09/04 09:59:00;;;;;;;1.38;0.50;;;25.40;92.50;;;;;;5001921;28;20392;-71
2022/09/04 10:01:49;;;;;;;0.15;0.15;;;25.40;92.80;;;;;;4997713;28;20169;-71
2022/09/04 10:04:33;;;;;;;0.00;0.00;;;25.30;92.30;;;;;;4994464;28;20069;-72
2022/09/04 10:07:37;;;;;;;0.00;0.00;;;25.30;92.20;;;;;;5003268;28;20436;-71
2022/09/04 10:10:23;;;;;;;0.22;0.22;;;25.20;92.70;;;;;;5001748;28;20096;-71
2022/09/04 10:13:13;;;;;;;0.00;0.00;;;25.10;92.70;;;;;;5000861;28;20410;-70
2022/09/04 10:15:48;;;;;;;3.08;0.20;;;25.10;93.10;;;;;;4998563;28;20680;-70
2022/09/04 10:18:34;;;;;;;0.10;0.10;;;25.30;92.80;;;;;;5000914;28;20405;-71
2022/09/04 10:21:19;;;;;;;0.00;0.00;;;25.60;93.00;;;;;;5008448;28;20125;-71
2022/09/04 10:24:15;;;;;;;0.00;0.00;;;25.80;92.80;;;;;;5004149;28;20854;-70
2022/09/04 10:27:10;;;;;;;0.00;0.00;;;25.90;92.60;;;;;;5004035;28;20054;-71
2022/09/04 10:29:51;;;;;;;4.20;0.90;;;25.70;92.40;;;;;;4996561;28;20164;-71
2022/09/04 10:32:35;;;;;;;0.25;0.20;;;25.70;92.80;;;;;;4993643;28;20054;-71
2022/09/04 10:35:24;;;;;;;0.00;0.00;;;25.80;92.80;;;;;;5004054;28;20050;-71
2022/09/04 10:38:02;;;;;;;1.90;0.93;;;25.60;92.40;;;;;;4998717;28;20049;-71
2022/09/04 10:40:54;;;;;;;0.00;0.00;;;25.70;92.30;;;;;;5008989;28;20125;-71
2022/09/04 10:43:44;;;;;;;0.47;0.47;;;25.70;92.70;;;;;;4985834;28;20101;-71
2022/09/04 10:46:52;;;;;;;0.00;0.00;;;25.80;92.70;;;;;;5006040;28;20054;-71
2022/09/04 10:49:29;;;;;;;0.00;0.00;;;25.80;92.30;;;;;;4995527;28;20054;-71
2022/09/04 10:52:08;;;;;;;0.00;0.00;;;26.00;92.90;;;;;;5000203;28;20056;-71
2022/09/04 10:55:02;;;;;;;0.82;0.50;;;26.10;92.60;;;;;;4992743;28;20060;-72
2022/09/04 10:58:09;;;;;;;0.00;0.00;;;26.20;92.40;;;;;;4996930;28;20425;-71
2022/09/04 11:00:59;;;;;;;0.60;0.50;;;26.30;92.10;;;;;;5002133;28;20064;-71
2022/09/04 11:03:57;;;;;;;0.00;0.00;;;26.20;92.00;;;;;;4994774;28;20042;-71
2022/09/04 11:06:48;;;;;;;0.10;0.10;;;26.10;92.10;;;;;;5009552;28;20041;-72
2022/09/04 11:09:32;;;;;;;0.00;0.00;;;26.30;92.20;;;;;;5004198;28;20393;-72
2022/09/04 11:12:12;;;;;;;0.00;0.00;;;26.40;92.20;;;;;;4992104;28;20049;-71
2022/09/04 11:14:50;;;;;;;0.10;0.10;;;26.50;92.00;;;;;;5007808;28;20509;-71
2022/09/04 11:17:31;;;;;;;0.00;0.00;;;26.60;92.20;;;;;;5002260;28;20058;-71
2022/09/04 11:20:06;;;;;;;0.08;0.08;;;26.80;92.60;;;;;;5004233;28;20163;-70
2022/09/04 11:23:07;;;;;;;0.28;0.10;;;26.90;91.60;;;;;;5001566;28;20038;-71
2022/09/04 11:25:51;;;;;;;0.15;0.15;;;26.90;92.10;;;;;;5001732;28;20553;-70
2022/09/04 11:28:59;;;;;;;0.00;0.00;;;26.90;91.60;;;;;;4993871;28;20124;-72
2022/09/04 11:31:47;;;;;;;0.90;0.65;;;27.00;91.70;;;;;;4986706;28;20058;-70
2022/09/04 11:34:39;;;;;;;0.98;0.43;;;27.00;91.10;;;;;;4998830;28;20109;-71
2022/09/04 11:37:30;;;;;;;0.00;0.00;;;27.10;91.70;;;;;;5004369;28;20053;-74
2022/09/04 11:40:17;;;;;;;0.00;0.00;;;27.10;92.00;;;;;;4999700;28;20054;-74
2022/09/04 11:43:14;;;;;;;0.00;0.00;;;27.00;91.80;;;;;;5013675;28;20431;-74
2022/09/04 11:45:57;;;;;;;0.10;0.10;;;27.00;91.60;;;;;;4999226;28;20042;-74
2022/09/04 11:49:00;;;;;;;0.00;0.00;;;26.90;91.50;;;;;;5001708;28;20561;-74
2022/09/04 11:51:49;;;;;;;0.17;0.17;;;26.80;91.60;;;;;;5013680;28;20050;-74
2022/09/04 11:54:22;;;;;;;0.22;0.22;;;26.70;91.60;;;;;;5009465;28;20505;-74
2022/09/04 11:57:12;;;;;;;0.52;0.40;;;26.70;92.00;;;;;;5011017;28;20045;-73
2022/09/04 11:59:54;;;;;;;0.00;0.00;;;26.70;91.70;;;;;;5008295;28;20387;-74
2022/09/04 12:02:40;;;;;;;0.00;0.00;;;26.90;92.00;;;;;;5002346;28;20134;-74
2022/09/04 12:05:06;;;;;;;0.20;0.08;;;27.10;91.90;;;;;;5013326;28;20056;-74
2022/09/04 12:07:55;;;;;;;0.00;0.00;;;27.10;92.10;;;;;;5010630;28;20049;-73
2022/09/04 12:10:44;;;;;;;0.00;0.00;;;27.10;91.50;;;;;;4995688;28;20462;-73
2022/09/04 12:13:39;;;;;;;0.00;0.00;;;27.10;92.00;;;;;;4999966;28;20073;-73
2022/09/04 12:16:27;;;;;;;0.05;0.05;;;27.20;92.30;;;;;;5003924;28;20064;-75
2022/09/04 12:19:23;;;;;;;0.00;0.00;;;27.20;92.40;;;;;;4992998;28;20046;-75
2022/09/04 12:22:20;;;;;;;0.00;0.00;;;27.30;91.60;;;;;;4990698;28;20418;-75
2022/09/04 12:25:04;;;;;;;0.00;0.00;;;27.30;91.50;;;;;;4990416;28;20136;-75
2022/09/04 12:27:38;;;;;;;0.25;0.10;;;27.30;91.60;;;;;;4997309;28;20730;-76
2022/09/04 12:30:13;;;;;;;0.15;0.15;;;27.40;91.70;;;;;;5008814;28;20049;-76
2022/09/04 12:33:09;;;;;;;0.00;0.00;;;27.60;91.40;;;;;;5000852;28;20081;-76
2022/09/04 12:36:02;;;;;;;0.08;0.08;;;27.90;91.70;;;;;;4993869;28;20050;-76
2022/09/04 12:38:34;;;;;;;0.10;0.10;;;28.30;91.60;;;;;;4999590;28;20050;-76
2022/09/04 12:41:15;;;;;;;0.00;0.00;;;28.50;90.90;;;;;;5006944;28;20125;-76
2022/09/04 12:44:04;;;;;;;0.47;0.32;;;28.50;90.80;;;;;;5010493;28;20312;-76
2022/09/04 12:46:47;;;;;;;0.00;0.00;;;28.60;90.50;;;;;;5000163;28;20038;-71
2022/09/04 12:49:24;;;;;;;0.40;0.40;;;28.70;90.70;;;;;;4992074;28;20042;-72
2022/09/04 12:52:05;;;;;;;0.00;0.00;;;28.70;90.70;;;;;;4992956;28;20254;-72
2022/09/04 12:54:42;;;;;;;0.05;0.05;;;28.70;90.70;;;;;;5004898;28;20058;-72
2022/09/04 12:57:32;;;;;;;0.10;0.10;;;28.80;90.90;;;;;;4995337;28;20081;-72
2022/09/04 13:00:14;;;;;;;0.00;0.00;;;28.80;91.00;;;;;;4991026;28;20109;-71
2022/09/04 13:02:48;;;;;;;0.00;0.00;;;28.70;90.90;;;;;;4991817;28;20149;-71
2022/09/04 13:05:38;;;;;;;0.00;0.00;;;28.60;90.90;;;;;;5008934;28;20069;-71
2022/09/04 13:08:30;;;;;;;0.10;0.10;;;28.70;90.70;;;;;;4999348;28;20054;-72
2022/09/04 13:11:20;;;;;;;0.03;0.03;;;28.50;90.10;;;;;;4991023;28;20101;-72
2022/09/04 13:14:16;;;;;;;0.00;0.00;;;28.50;90.50;;;;;;5006159;28;20084;-72
2022/09/04 13:17:18;;;;;;;0.20;0.20;;;28.50;91.20;;;;;;5009967;28;20131;-73
2022/09/04 13:19:47;;;;;;;0.00;0.00;;;28.60;91.20;;;;;;4991256;28;20046;-72
2022/09/04 13:22:53;;;;;;;0.00;0.00;;;28.60;90.70;;;;;;4993063;28;20812;-74
2022/09/04 13:26:02;;;;;;;0.00;0.00;;;28.70;91.20;;;;;;4989793;28;20065;-73
2022/09/04 13:28:46;;;;;;;0.40;0.25;;;28.80;90.20;;;;;;4991826;28;20379;-72
2022/09/04 13:31:18;;;;;;;0.00;0.00;;;28.80;89.80;;;;;;5003697;28;20164;-72
2022/09/04 13:34:07;;;;;;;4.75;0.90;;;28.90;90.70;;;;;;4992960;28;20142;-72
2022/09/04 13:37:22;;;;;;;0.40;0.40;;;29.20;90.60;;;;;;4999271;28;20085;-72
2022/09/04 13:40:16;;;;;;;0.00;0.00;;;29.50;90.40;;;;;;4995735;28;20049;-72
2022/09/04 13:43:15;;;;;;;0.00;0.00;;;29.50;90.20;;;;;;5003211;28;20088;-72
2022/09/04 13:45:46;;;;;;;0.38;0.38;;;29.60;90.10;;;;;;5009176;28;20058;-72
2022/09/04 13:48:45;;;;;;;0.63;0.22;;;29.30;89.80;;;;;;4994620;28;20442;-72
2022/09/04 13:51:21;;;;;;;0.10;0.10;;;29.40;90.30;;;;;;4989208;28;20064;-72
2022/09/04 13:54:08;;;;;;;0.00;0.00;;;29.20;90.30;;;;;;4991575;28;20082;-72
2022/09/04 13:56:41;;;;;;;0.10;0.10;;;29.20;90.00;;;;;;5009344;28;20049;-72
2022/09/04 13:59:09;;;;;;;0.13;0.13;;;29.30;90.00;;;;;;4998633;28;20592;-72
2022/09/04 14:01:44;;;;;;;0.00;0.00;;;29.40;90.60;;;;;;4999735;28;20096;-72
2022/09/04 14:04:15;;;;;;;0.03;0.00;;;29.40;90.40;;;;;;5010674;28;20048;-72
2022/09/04 14:06:43;;;;;;;0.10;0.10;;;29.50;90.60;;;;;;5006911;28;20057;-72
2022/09/04 14:09:09;;;;;;;0.17;0.15;;;29.50;90.20;;;;;;5008013;28;20041;-72
2022/09/04 14:12:17;;;;;;;0.00;0.00;;;29.50;90.50;;;;;;4990761;28;20038;-72
2022/09/04 14:15:04;;;;;;;0.20;0.20;;;29.40;90.10;;;;;;5010949;28;20054;-72
2022/09/04 14:17:42;;;;;;;0.08;0.08;;;29.40;90.80;;;;;;4994487;28;20096;-72
2022/09/04 14:20:17;;;;;;;0.00;0.00;;;29.30;89.80;;;;;;4990328;28;20506;-72
2022/09/04 14:23:03;;;;;;;0.00;0.00;;;29.20;90.10;;;;;;5010154;28;20046;-72
2022/09/04 14:25:42;;;;;;;0.10;0.10;;;29.40;90.60;;;;;;5010114;28;20054;-72